Time;durP1;ratioP1;P1;durP2;ratioP2;P2;SDS_P1;SDS_P2;PMS_P1;PMS_P2;Temp;Humidity;BMP_temperature;BMP_pressure;BME280_temperature;BME280_humidity;BME280_pressure;Samples;Min_cycle;Max_cycle;Signal;HPM_P1;HPM_P2
2022/04/13 00:00:46;;;;;;;15.95;8.80;;;17.10;82.70;;;;;;5032616;28;20116;-66
2022/04/13 00:03:12;;;;;;;15.88;8.80;;;17.10;82.70;;;;;;5021159;28;20037;-66
2022/04/13 00:05:44;;;;;;;15.95;8.80;;;17.10;82.70;;;;;;5029329;28;20807;-66
2022/04/13 00:08:09;;;;;;;17.15;8.93;;;17.10;82.80;;;;;;5029193;28;20037;-66
2022/04/13 00:10:36;;;;;;;15.00;8.98;;;17.00;82.80;;;;;;5027063;28;20033;-66
2022/04/13 00:13:04;;;;;;;15.80;9.15;;;17.00;83.00;;;;;;5031934;28;20052;-66
2022/04/13 00:15:30;;;;;;;13.70;8.25;;;17.00;83.00;;;;;;5028275;28;20053;-66
2022/04/13 00:17:56;;;;;;;18.42;8.95;;;17.00;83.60;;;;;;5028591;28;20501;-66
2022/04/13 00:20:22;;;;;;;18.02;9.00;;;17.00;83.10;;;;;;5023830;28;20030;-66
2022/04/13 00:22:50;;;;;;;17.63;9.15;;;17.00;83.20;;;;;;5032039;28;20487;-66
2022/04/13 00:25:16;;;;;;;15.27;8.35;;;16.90;83.20;;;;;;5032319;28;20034;-66
2022/04/13 00:27:42;;;;;;;15.55;8.45;;;16.90;83.10;;;;;;5031796;28;20068;-66
2022/04/13 00:30:08;;;;;;;13.20;8.02;;;16.90;83.20;;;;;;5032183;28;20030;-66
2022/04/13 00:32:33;;;;;;;13.88;8.90;;;16.90;83.30;;;;;;5032357;28;20049;-66
2022/04/13 00:35:04;;;;;;;15.15;8.35;;;16.90;83.30;;;;;;5031723;28;20076;-66
2022/04/13 00:37:30;;;;;;;14.48;7.72;;;16.80;83.30;;;;;;5032176;28;20034;-66
2022/04/13 00:39:56;;;;;;;14.38;7.65;;;16.80;83.40;;;;;;5031883;28;20116;-66
2022/04/13 00:42:21;;;;;;;17.90;8.50;;;16.80;83.60;;;;;;5031402;28;20037;-66
2022/04/13 00:44:47;;;;;;;14.80;8.35;;;16.80;83.60;;;;;;5025541;28;20034;-66
2022/04/13 00:47:13;;;;;;;14.20;7.95;;;16.80;83.60;;;;;;5012578;28;20037;-66
2022/04/13 00:49:40;;;;;;;12.73;8.32;;;16.80;83.60;;;;;;5011787;28;20390;-66
2022/04/13 00:52:07;;;;;;;13.38;8.02;;;16.80;83.60;;;;;;5023807;28;20091;-66
2022/04/13 00:54:34;;;;;;;13.23;8.27;;;16.80;83.80;;;;;;5031512;28;20033;-68
2022/04/13 00:57:07;;;;;;;14.10;7.55;;;16.80;84.20;;;;;;5031492;28;20041;-66
2022/04/13 00:59:38;;;;;;;14.70;7.05;;;16.80;84.00;;;;;;5029893;28;20381;-66
2022/04/13 01:02:06;;;;;;;13.90;8.32;;;16.80;84.30;;;;;;5018820;28;20115;-66
2022/04/13 01:04:34;;;;;;;14.88;8.00;;;16.70;85.20;;;;;;5014835;28;20026;-66
2022/04/13 01:07:01;;;;;;;15.98;7.22;;;16.70;84.60;;;;;;5030857;28;20040;-66
2022/04/13 01:09:29;;;;;;;14.27;7.75;;;16.70;86.50;;;;;;5030646;28;20049;-66
2022/04/13 01:11:57;;;;;;;13.77;7.78;;;16.70;87.00;;;;;;5031754;28;20029;-66
2022/04/13 01:14:23;;;;;;;14.75;7.03;;;16.60;87.20;;;;;;5026761;28;20120;-66
2022/04/13 01:16:52;;;;;;;13.63;7.18;;;16.60;87.50;;;;;;5011801;28;20117;-66
2022/04/13 01:19:18;;;;;;;12.00;7.18;;;16.60;87.90;;;;;;5011688;28;20034;-66
2022/04/13 01:21:47;;;;;;;11.52;7.32;;;16.60;87.50;;;;;;5020926;28;20082;-66
2022/04/13 01:24:13;;;;;;;12.68;7.43;;;16.60;87.30;;;;;;5030703;28;20048;-66
2022/04/13 01:26:39;;;;;;;10.43;6.03;;;16.60;87.10;;;;;;5031283;28;20047;-66
2022/04/13 01:29:05;;;;;;;9.90;6.35;;;16.50;87.20;;;;;;5030801;28;20043;-66
2022/04/13 01:31:33;;;;;;;12.60;6.88;;;16.50;87.30;;;;;;5030360;28;20396;-66
2022/04/13 01:33:59;;;;;;;12.00;6.07;;;16.60;87.40;;;;;;5026921;28;20037;-66
2022/04/13 01:36:34;;;;;;;10.77;6.57;;;16.50;87.20;;;;;;5011331;28;20041;-66
2022/04/13 01:39:01;;;;;;;12.40;6.85;;;16.60;87.20;;;;;;5019588;28;20030;-66
2022/04/13 01:41:27;;;;;;;11.68;7.03;;;16.50;87.10;;;;;;5011542;28;20045;-66
2022/04/13 01:43:53;;;;;;;14.10;6.93;;;16.60;86.90;;;;;;5017607;28;20040;-66
2022/04/13 01:46:19;;;;;;;10.48;6.03;;;16.60;86.80;;;;;;5030766;28;20104;-66
2022/04/13 01:48:44;;;;;;;10.52;6.30;;;16.50;86.60;;;;;;5023907;28;20776;-66
2022/04/13 01:51:10;;;;;;;11.98;6.50;;;16.50;86.60;;;;;;5024192;28;20060;-66
2022/04/13 01:53:36;;;;;;;10.85;6.13;;;16.50;86.60;;;;;;5030812;28;20033;-66
2022/04/13 01:56:04;;;;;;;12.48;6.03;;;16.50;86.80;;;;;;5017993;28;20569;-64
2022/04/13 01:58:31;;;;;;;11.25;6.10;;;16.50;86.80;;;;;;5010518;28;20072;-65
2022/04/13 02:00:57;;;;;;;8.85;5.80;;;16.50;86.90;;;;;;5020453;28;20049;-65
2022/04/13 02:03:25;;;;;;;14.27;5.97;;;16.50;87.00;;;;;;5023435;28;20034;-64
2022/04/13 02:05:52;;;;;;;16.77;6.97;;;16.50;87.20;;;;;;5011659;28;20026;-64
2022/04/13 02:08:19;;;;;;;13.30;6.97;;;16.40;87.00;;;;;;5027717;28;20117;-64
2022/04/13 02:10:45;;;;;;;12.15;6.40;;;16.40;86.90;;;;;;5017822;28;20040;-64
2022/04/13 02:13:11;;;;;;;14.40;6.60;;;16.40;86.70;;;;;;5026224;28;20120;-64
2022/04/13 02:15:38;;;;;;;13.13;6.32;;;16.40;86.60;;;;;;5029536;28;20041;-64
2022/04/13 02:18:05;;;;;;;12.20;6.28;;;16.40;86.60;;;;;;5025987;28;20038;-65
2022/04/13 02:20:30;;;;;;;13.68;6.10;;;16.40;86.60;;;;;;5014217;28;20392;-65
2022/04/13 02:22:56;;;;;;;13.60;6.00;;;16.40;86.60;;;;;;5015325;28;20030;-65
2022/04/13 02:25:22;;;;;;;14.95;6.65;;;16.40;86.60;;;;;;5030726;28;20500;-65
2022/04/13 02:27:47;;;;;;;12.45;6.38;;;16.40;86.70;;;;;;5024402;28;20117;-64
2022/04/13 02:30:13;;;;;;;19.50;6.57;;;16.40;86.80;;;;;;5029515;28;20060;-65
2022/04/13 02:32:43;;;;;;;16.20;7.45;;;16.40;86.90;;;;;;5034378;28;20392;-65
2022/04/13 02:35:09;;;;;;;12.35;6.57;;;16.40;86.90;;;;;;5017424;28;20026;-64
2022/04/13 02:37:35;;;;;;;13.93;5.88;;;16.30;86.80;;;;;;5014908;28;20038;-64
2022/04/13 02:40:00;;;;;;;11.65;6.13;;;16.30;87.00;;;;;;5027985;28;20108;-65
2022/04/13 02:42:34;;;;;;;10.60;5.75;;;16.30;87.30;;;;;;5024144;28;20029;-65
2022/04/13 02:45:02;;;;;;;9.45;5.53;;;16.30;87.80;;;;;;5034311;28;20045;-64
2022/04/13 02:47:27;;;;;;;11.95;6.55;;;16.30;88.10;;;;;;5033749;28;20037;-65
2022/04/13 02:49:56;;;;;;;13.32;7.18;;;16.20;88.30;;;;;;5033142;28;20504;-64
2022/04/13 02:52:25;;;;;;;12.68;6.65;;;16.20;89.10;;;;;;5034127;28;20492;-64
2022/04/13 02:54:51;;;;;;;10.82;6.05;;;16.20;89.30;;;;;;5020979;28;20025;-65
2022/04/13 02:57:17;;;;;;;12.88;6.20;;;16.20;89.60;;;;;;5020517;28;20091;-65
2022/04/13 02:59:46;;;;;;;11.63;6.63;;;16.10;90.00;;;;;;5033772;28;20038;-65
2022/04/13 03:02:14;;;;;;;15.52;6.88;;;16.10;90.20;;;;;;5032048;28;20077;-64
2022/04/13 03:04:42;;;;;;;13.23;7.00;;;16.10;90.30;;;;;;5025602;28;20385;-65
2022/04/13 03:07:10;;;;;;;17.08;6.85;;;16.10;90.40;;;;;;5014180;28;20037;-64
2022/04/13 03:09:36;;;;;;;12.30;6.70;;;16.10;90.50;;;;;;5013558;28;20101;-64
2022/04/13 03:12:02;;;;;;;15.70;6.28;;;16.10;90.50;;;;;;5030313;28;20051;-65
2022/04/13 03:14:27;;;;;;;19.50;7.70;;;16.00;90.70;;;;;;5023922;28;20037;-65
2022/04/13 03:16:53;;;;;;;11.63;7.10;;;16.00;90.80;;;;;;5026350;28;20378;-65
2022/04/13 03:19:19;;;;;;;13.07;7.25;;;16.00;90.90;;;;;;5013458;28;20469;-65
2022/04/13 03:21:50;;;;;;;16.20;7.50;;;16.00;91.10;;;;;;5013822;28;20030;-65
2022/04/13 03:24:15;;;;;;;15.77;8.05;;;16.00;91.20;;;;;;5013604;28;20048;-65
2022/04/13 03:26:41;;;;;;;13.00;7.40;;;15.90;91.10;;;;;;5017906;28;20025;-65
2022/04/13 03:29:07;;;;;;;16.20;7.80;;;16.00;91.20;;;;;;5033123;28;20507;-65
2022/04/13 03:31:32;;;;;;;13.30;7.32;;;16.00;91.30;;;;;;5031448;28;20025;-65
2022/04/13 03:33:58;;;;;;;20.33;7.72;;;15.90;91.40;;;;;;5032250;28;20033;-64
2022/04/13 03:36:23;;;;;;;16.98;8.00;;;15.90;91.50;;;;;;5031710;28;20040;-65
2022/04/13 03:38:49;;;;;;;18.50;8.43;;;15.90;91.50;;;;;;5032126;28;20044;-65
2022/04/13 03:41:15;;;;;;;16.15;7.78;;;15.90;91.70;;;;;;5032011;28;20028;-65
2022/04/13 03:43:40;;;;;;;18.52;8.20;;;15.90;91.80;;;;;;5031405;28;20017;-64
2022/04/13 03:46:06;;;;;;;15.25;8.60;;;15.90;91.70;;;;;;5031868;28;20029;-65
2022/04/13 03:48:32;;;;;;;42.95;10.30;;;15.80;91.60;;;;;;5032171;28;20342;-64
2022/04/13 03:50:57;;;;;;;34.70;8.82;;;15.80;91.40;;;;;;5031200;28;20534;-65
2022/04/13 03:53:23;;;;;;;17.23;8.77;;;15.90;91.20;;;;;;5031897;28;20057;-65
2022/04/13 03:55:49;;;;;;;16.75;8.68;;;15.90;91.10;;;;;;5031675;28;20036;-65
2022/04/13 03:58:15;;;;;;;13.65;8.35;;;15.90;91.00;;;;;;5031049;28;20040;-65
2022/04/13 04:00:40;;;;;;;14.75;8.77;;;15.90;90.90;;;;;;5027060;28;20104;-65
2022/04/13 04:03:06;;;;;;;18.83;9.05;;;15.90;91.00;;;;;;5025264;28;20096;-65
2022/04/13 04:05:32;;;;;;;20.13;9.70;;;15.90;91.10;;;;;;5026774;28;20454;-65
2022/04/13 04:07:57;;;;;;;18.70;8.48;;;15.90;91.20;;;;;;5013257;28;20030;-65
2022/04/13 04:10:24;;;;;;;18.73;9.18;;;15.90;91.30;;;;;;5012878;28;20129;-65
2022/04/13 04:12:50;;;;;;;25.75;10.23;;;15.80;91.30;;;;;;5024584;28;20548;-65
2022/04/13 04:15:16;;;;;;;18.50;8.98;;;15.80;91.40;;;;;;5019624;28;20036;-65
2022/04/13 04:17:41;;;;;;;17.52;9.50;;;15.80;91.40;;;;;;5020296;28;20084;-65
2022/04/13 04:20:08;;;;;;;24.13;9.68;;;15.80;91.50;;;;;;5025050;28;20026;-65
2022/04/13 04:22:35;;;;;;;21.75;8.73;;;15.80;91.50;;;;;;5012765;28;20103;-65
2022/04/13 04:25:05;;;;;;;17.35;8.95;;;15.80;91.60;;;;;;5012785;28;20046;-65
2022/04/13 04:27:31;;;;;;;15.27;8.60;;;15.80;91.70;;;;;;5025142;28;20057;-65
2022/04/13 04:29:57;;;;;;;20.45;9.07;;;15.80;91.80;;;;;;5025642;28;20072;-65
2022/04/13 04:32:23;;;;;;;25.27;9.40;;;15.70;91.90;;;;;;5019305;28;20069;-65
2022/04/13 04:34:52;;;;;;;20.80;9.40;;;15.70;92.10;;;;;;5031092;28;20029;-65
2022/04/13 04:37:17;;;;;;;22.65;10.35;;;15.70;92.00;;;;;;5020006;28;20458;-65
2022/04/13 04:39:44;;;;;;;17.98;9.60;;;15.70;92.00;;;;;;5030070;28;20117;-65
2022/04/13 04:42:10;;;;;;;19.88;9.52;;;15.70;91.90;;;;;;5013408;28;20087;-65
2022/04/13 04:44:35;;;;;;;19.88;9.82;;;15.70;91.80;;;;;;5026179;28;20037;-65
2022/04/13 04:47:01;;;;;;;23.55;9.10;;;15.70;91.70;;;;;;5024073;28;20041;-65
2022/04/13 04:49:27;;;;;;;19.20;9.43;;;15.80;91.80;;;;;;5013457;28;20030;-65
2022/04/13 04:51:52;;;;;;;19.83;9.43;;;15.70;91.90;;;;;;5024354;28;20522;-65
2022/04/13 04:54:18;;;;;;;24.40;9.85;;;15.70;92.00;;;;;;5011324;28;20136;-65
2022/04/13 04:56:44;;;;;;;22.52;9.20;;;15.70;91.90;;;;;;5012559;28;20068;-65
2022/04/13 04:59:09;;;;;;;16.80;9.63;;;15.60;91.90;;;;;;5012066;28;20034;-65
2022/04/13 05:01:35;;;;;;;26.40;9.80;;;15.60;91.80;;;;;;5025751;28;20496;-65
2022/04/13 05:04:01;;;;;;;19.25;9.38;;;15.70;91.70;;;;;;5031371;28;20088;-65
2022/04/13 05:06:29;;;;;;;20.55;10.77;;;15.70;91.70;;;;;;5020845;28;20050;-65
2022/04/13 05:08:56;;;;;;;24.15;10.18;;;15.70;91.70;;;;;;5024453;28;20088;-65
2022/04/13 05:11:22;;;;;;;28.02;10.65;;;15.70;91.70;;;;;;5022502;28;20105;-67
2022/04/13 05:13:48;;;;;;;25.20;10.73;;;15.70;91.60;;;;;;5031429;28;20152;-66
2022/04/13 05:16:18;;;;;;;25.77;9.82;;;15.70;91.50;;;;;;5018331;28;20545;-65
2022/04/13 05:18:48;;;;;;;22.85;9.32;;;15.70;91.50;;;;;;5017063;28;20379;-66
2022/04/13 05:21:16;;;;;;;17.55;9.18;;;15.70;91.50;;;;;;5013142;28;20034;-65
2022/04/13 05:23:42;;;;;;;15.93;8.82;;;15.70;91.40;;;;;;5029870;28;20468;-70
2022/04/13 05:26:08;;;;;;;17.52;9.23;;;15.70;91.40;;;;;;5025091;28;20041;-65
2022/04/13 05:28:37;;;;;;;18.88;9.82;;;15.70;91.30;;;;;;5023510;28;20036;-65
2022/04/13 05:31:02;;;;;;;20.15;10.52;;;15.70;91.30;;;;;;5028923;28;20025;-65
2022/04/13 05:33:28;;;;;;;20.17;10.00;;;15.70;91.30;;;;;;5028588;28;20045;-65
2022/04/13 05:35:54;;;;;;;19.65;9.68;;;15.80;91.30;;;;;;5026813;28;20034;-66
2022/04/13 05:38:20;;;;;;;21.70;9.25;;;15.70;91.30;;;;;;5026867;28;20083;-65
2022/04/13 05:40:45;;;;;;;17.20;8.27;;;15.70;91.20;;;;;;5026949;28;20136;-65
2022/04/13 05:43:11;;;;;;;18.15;8.60;;;15.70;91.40;;;;;;5028154;28;20083;-65
2022/04/13 05:45:37;;;;;;;19.40;9.07;;;15.70;91.70;;;;;;5028575;28;20021;-65
2022/04/13 05:48:03;;;;;;;17.33;8.75;;;15.70;91.70;;;;;;5029944;28;20029;-65
2022/04/13 05:50:29;;;;;;;18.00;8.50;;;15.70;91.70;;;;;;5026850;28;20029;-67
2022/04/13 05:52:55;;;;;;;23.45;9.60;;;15.70;91.70;;;;;;5029046;28;20063;-67
2022/04/13 05:55:21;;;;;;;23.50;9.35;;;15.70;91.80;;;;;;5023444;28;20013;-67
2022/04/13 05:57:46;;;;;;;18.00;9.55;;;15.60;91.90;;;;;;5025480;28;20511;-68
2022/04/13 06:00:12;;;;;;;26.15;10.38;;;15.60;92.00;;;;;;5028342;28;20028;-67
2022/04/13 06:02:39;;;;;;;17.80;9.55;;;15.70;91.90;;;;;;5029502;28;20041;-66
2022/04/13 06:05:06;;;;;;;20.80;9.70;;;15.60;91.90;;;;;;5028569;28;20029;-66
2022/04/13 06:07:32;;;;;;;23.35;10.02;;;15.70;91.90;;;;;;5029687;28;20021;-67
2022/04/13 06:10:02;;;;;;;33.33;10.90;;;15.70;91.80;;;;;;5030201;28;20065;-67
2022/04/13 06:12:29;;;;;;;22.63;10.55;;;15.70;91.80;;;;;;5028358;28;20389;-67
2022/04/13 06:15:12;;;;;;;25.98;9.93;;;15.70;91.80;;;;;;5023317;28;20033;-67
2022/04/13 06:17:38;;;;;;;19.17;8.85;;;15.80;91.80;;;;;;5027471;28;20033;-67
2022/04/13 06:20:06;;;;;;;17.42;8.68;;;15.70;91.80;;;;;;5029036;28;20155;-67
2022/04/13 06:22:37;;;;;;;16.73;8.88;;;15.70;92.10;;;;;;5029511;28;20040;-65
2022/04/13 06:25:03;;;;;;;15.75;8.15;;;15.70;92.40;;;;;;5029427;28;20026;-65
2022/04/13 06:27:29;;;;;;;17.52;9.05;;;15.70;92.50;;;;;;5028302;28;20036;-65
2022/04/13 06:29:55;;;;;;;15.95;8.77;;;15.60;92.80;;;;;;5028751;28;20037;-65
2022/04/13 06:32:21;;;;;;;16.88;8.00;;;15.70;93.00;;;;;;5025921;28;20037;-67
2022/04/13 06:34:46;;;;;;;24.48;7.70;;;15.60;93.20;;;;;;5027178;28;20429;-65
2022/04/13 06:37:12;;;;;;;17.33;8.60;;;15.60;93.40;;;;;;5027352;28;20025;-66
2022/04/13 06:39:38;;;;;;;18.13;8.07;;;15.60;93.50;;;;;;5028321;28;20116;-65
2022/04/13 06:42:04;;;;;;;13.73;6.22;;;15.60;93.70;;;;;;5029236;28;20049;-69
2022/04/13 06:44:29;;;;;;;18.77;7.05;;;15.50;93.80;;;;;;5029654;28;20056;-64
2022/04/13 06:46:55;;;;;;;10.95;5.57;;;15.50;94.00;;;;;;5025995;28;20030;-65
2022/04/13 06:49:21;;;;;;;17.20;8.88;;;15.50;94.10;;;;;;5021450;28;20041;-65
2022/04/13 06:51:46;;;;;;;18.98;9.75;;;15.50;94.20;;;;;;5012921;28;20030;-65
2022/04/13 06:54:12;;;;;;;16.20;8.50;;;15.50;94.40;;;;;;5013068;28;20065;-64
2022/04/13 06:56:39;;;;;;;15.98;8.40;;;15.50;94.50;;;;;;5031066;28;20018;-65
2022/04/13 06:59:06;;;;;;;19.80;9.25;;;15.50;94.50;;;;;;5032339;28;20053;-65
2022/04/13 07:01:32;;;;;;;16.00;8.70;;;15.50;94.60;;;;;;5031737;28;20045;-65
2022/04/13 07:03:57;;;;;;;24.13;10.77;;;15.50;94.70;;;;;;5034149;28;20033;-65
2022/04/13 07:06:23;;;;;;;12.18;6.22;;;15.50;95.10;;;;;;5033587;28;20192;-63
2022/04/13 07:08:48;;;;;;;17.13;7.10;;;15.50;94.80;;;;;;5020820;28;20073;-65
2022/04/13 07:11:14;;;;;;;14.52;5.55;;;15.50;94.90;;;;;;5027139;28;20034;-65
2022/04/13 07:13:40;;;;;;;14.63;6.80;;;15.50;95.00;;;;;;5013606;28;20065;-65
2022/04/13 07:16:06;;;;;;;17.70;8.25;;;15.50;95.10;;;;;;5031863;28;20737;-65
2022/04/13 07:18:32;;;;;;;15.10;8.40;;;15.60;95.20;;;;;;5020439;28;20042;-65
2022/04/13 07:20:58;;;;;;;10.13;5.47;;;15.60;95.30;;;;;;5014255;28;20029;-65
2022/04/13 07:23:24;;;;;;;14.80;6.70;;;15.60;95.40;;;;;;5013701;28;20110;-64
2022/04/13 07:25:50;;;;;;;7.68;4.07;;;15.60;95.50;;;;;;5033755;28;20037;-65
2022/04/13 07:28:15;;;;;;;11.55;4.90;;;15.60;95.60;;;;;;5020197;28;20030;-65
2022/04/13 07:30:41;;;;;;;7.90;4.22;;;15.60;95.70;;;;;;5025585;28;20494;-65
2022/04/13 07:33:07;;;;;;;8.32;4.35;;;15.60;95.80;;;;;;5013222;28;20347;-65
2022/04/13 07:35:32;;;;;;;6.45;3.47;;;15.60;95.90;;;;;;5012860;28;20477;-65
2022/04/13 07:37:58;;;;;;;11.18;5.47;;;15.60;96.10;;;;;;5013782;28;20057;-65
2022/04/13 07:40:24;;;;;;;12.98;4.55;;;15.60;96.30;;;;;;5013747;28;20034;-65
2022/04/13 07:42:50;;;;;;;6.82;3.65;;;15.50;96.40;;;;;;5026234;28;20030;-65
2022/04/13 07:45:18;;;;;;;7.63;3.92;;;15.50;96.60;;;;;;5033606;28;20029;-65
2022/04/13 07:47:44;;;;;;;3.08;1.83;;;15.50;96.70;;;;;;5018920;28;20049;-65
2022/04/13 07:50:13;;;;;;;17.65;7.35;;;15.50;96.80;;;;;;5020812;28;20033;-65
2022/04/13 07:52:40;;;;;;;10.95;6.15;;;15.50;96.90;;;;;;5030936;28;20041;-65
2022/04/13 07:55:10;;;;;;;6.93;3.75;;;15.50;97.00;;;;;;5013330;28;20076;-65
2022/04/13 07:57:37;;;;;;;7.82;4.57;;;15.50;97.10;;;;;;5025348;28;20030;-65
2022/04/13 08:00:05;;;;;;;17.17;6.15;;;15.50;97.20;;;;;;5023441;28;20061;-64
2022/04/13 08:02:39;;;;;;;11.13;6.43;;;15.60;97.20;;;;;;5032785;28;20037;-65
2022/04/13 08:05:05;;;;;;;9.77;4.63;;;15.60;97.30;;;;;;5032096;28;20054;-65
2022/04/13 08:07:31;;;;;;;6.03;3.78;;;15.60;97.30;;;;;;5013958;28;20057;-65
2022/04/13 08:09:57;;;;;;;10.38;5.03;;;15.60;97.30;;;;;;5013276;28;20076;-65
2022/04/13 08:12:27;;;;;;;7.50;3.70;;;15.70;97.40;;;;;;5017901;28;20047;-65
2022/04/13 08:14:53;;;;;;;13.68;5.32;;;15.70;97.40;;;;;;5032238;28;20025;-65
2022/04/13 08:17:18;;;;;;;20.35;5.28;;;15.80;97.40;;;;;;5013559;28;20056;-65
2022/04/13 08:19:47;;;;;;;8.15;4.35;;;15.80;97.40;;;;;;5025274;28;20053;-66
2022/04/13 08:22:13;;;;;;;5.85;3.00;;;15.80;97.40;;;;;;5012952;28;20057;-66
2022/04/13 08:24:39;;;;;;;13.20;4.70;;;15.80;97.40;;;;;;5012290;28;20034;-65
2022/04/13 08:27:09;;;;;;;10.65;5.75;;;15.80;97.40;;;;;;5025250;28;20045;-65
2022/04/13 08:29:35;;;;;;;10.43;4.07;;;15.90;97.40;;;;;;5026426;28;20038;-65
2022/04/13 08:32:01;;;;;;;10.65;4.05;;;15.90;97.50;;;;;;5014668;28;20410;-66
2022/04/13 08:34:27;;;;;;;7.30;4.10;;;15.90;97.50;;;;;;5012445;28;20061;-66
2022/04/13 08:36:52;;;;;;;6.93;2.85;;;15.90;97.50;;;;;;5029004;28;20029;-65
2022/04/13 08:39:18;;;;;;;16.25;6.20;;;15.90;97.60;;;;;;5031388;28;20034;-65
2022/04/13 08:41:55;;;;;;;11.02;5.22;;;15.90;97.60;;;;;;5027637;28;20629;-66
2022/04/13 08:44:29;;;;;;;21.55;4.20;;;16.00;97.60;;;;;;5025146;28;20033;-65
2022/04/13 08:47:00;;;;;;;14.43;7.38;;;15.90;97.60;;;;;;5012046;28;20037;-65
2022/04/13 08:49:26;;;;;;;4.57;2.72;;;16.00;97.70;;;;;;5013048;28;20392;-65
2022/04/13 08:51:53;;;;;;;10.18;4.68;;;16.00;97.70;;;;;;5012021;28;20088;-65
2022/04/13 08:54:20;;;;;;;9.98;4.50;;;16.10;97.70;;;;;;5011514;28;20045;-65
2022/04/13 08:56:51;;;;;;;13.25;5.72;;;16.10;97.70;;;;;;5012026;28;20046;-65
2022/04/13 08:59:41;;;;;;;4.28;3.05;;;16.20;97.70;;;;;;5015951;28;20040;-65
2022/04/13 09:02:23;;;;;;;5.60;3.75;;;16.20;97.70;;;;;;5017293;28;20048;-65
2022/04/13 09:04:51;;;;;;;13.48;5.95;;;16.20;97.70;;;;;;5031768;28;20127;-66
2022/04/13 09:07:18;;;;;;;6.32;3.30;;;16.20;97.70;;;;;;5030677;28;20055;-65
2022/04/13 09:09:46;;;;;;;6.82;4.30;;;16.30;97.80;;;;;;5031878;28;20076;-65
2022/04/13 09:12:14;;;;;;;12.70;5.72;;;16.30;97.80;;;;;;5018252;28;20489;-65
2022/04/13 09:14:40;;;;;;;14.88;6.25;;;16.30;97.80;;;;;;5029859;28;20033;-65
2022/04/13 09:17:07;;;;;;;10.32;6.20;;;16.40;97.80;;;;;;5030850;28;20040;-65
2022/04/13 09:19:33;;;;;;;14.23;6.80;;;16.40;97.80;;;;;;5019277;28;20045;-66
2022/04/13 09:21:59;;;;;;;14.15;7.38;;;16.50;97.70;;;;;;5017136;28;20040;-65
2022/04/13 09:24:30;;;;;;;7.80;3.58;;;16.50;97.70;;;;;;5031456;28;20062;-65
2022/04/13 09:26:56;;;;;;;15.80;6.75;;;16.60;97.80;;;;;;5031548;28;20033;-66
2022/04/13 09:29:22;;;;;;;12.02;6.50;;;16.70;97.70;;;;;;5030262;28;20744;-66
2022/04/13 09:31:48;;;;;;;11.15;5.68;;;16.70;97.60;;;;;;5030351;28;20045;-68
2022/04/13 09:34:14;;;;;;;5.25;2.97;;;16.70;97.60;;;;;;5027478;28;20044;-66
2022/04/13 09:36:41;;;;;;;9.38;3.45;;;16.80;97.60;;;;;;5010875;28;20094;-66
2022/04/13 09:39:07;;;;;;;14.85;4.90;;;16.80;97.60;;;;;;5015649;28;20038;-67
2022/04/13 09:41:35;;;;;;;9.52;3.78;;;16.80;97.60;;;;;;5027006;28;20079;-67
2022/04/13 09:44:01;;;;;;;12.57;6.20;;;16.80;97.60;;;;;;5024208;28;20038;-67
2022/04/13 09:46:33;;;;;;;6.03;3.28;;;16.80;97.60;;;;;;5016913;28;20084;-67
2022/04/13 09:49:20;;;;;;;5.05;3.60;;;16.90;97.80;;;;;;5028869;28;20507;-67
2022/04/13 09:51:50;;;;;;;12.82;6.00;;;16.90;97.70;;;;;;5018790;28;20034;-67
2022/04/13 09:54:16;;;;;;;9.55;4.22;;;16.90;97.70;;;;;;5016214;28;20109;-67
2022/04/13 09:56:49;;;;;;;3.65;2.53;;;17.00;97.80;;;;;;5028723;28;20025;-66
2022/04/13 09:59:24;;;;;;;7.50;4.38;;;17.00;97.90;;;;;;5027017;28;20089;-66
2022/04/13 10:01:50;;;;;;;13.40;4.22;;;17.00;97.80;;;;;;5029193;28;20136;-66
2022/04/13 10:04:30;;;;;;;11.73;4.70;;;17.00;97.90;;;;;;5028825;28;20156;-66
2022/04/13 10:07:15;;;;;;;11.38;4.53;;;17.10;97.80;;;;;;5030502;28;20483;-66
2022/04/13 10:09:41;;;;;;;2.50;1.63;;;17.10;97.80;;;;;;5030719;28;20034;-65
2022/04/13 10:12:09;;;;;;;7.47;3.63;;;17.20;97.90;;;;;;5028287;28;20030;-67
2022/04/13 10:14:38;;;;;;;6.82;3.95;;;17.20;97.90;;;;;;5019275;28;20026;-66
2022/04/13 10:17:13;;;;;;;8.57;3.97;;;17.20;97.70;;;;;;5027325;28;20069;-66
2022/04/13 10:19:39;;;;;;;3.65;2.22;;;17.30;97.70;;;;;;5017187;28;20115;-66
2022/04/13 10:22:05;;;;;;;8.60;3.53;;;17.20;97.70;;;;;;5017861;28;20046;-65
2022/04/13 10:24:36;;;;;;;4.07;2.22;;;17.30;97.70;;;;;;5023324;28;20029;-65
2022/04/13 10:27:10;;;;;;;8.75;3.53;;;17.30;98.00;;;;;;5011541;28;20034;-64
2022/04/13 10:29:37;;;;;;;14.50;4.93;;;17.30;97.70;;;;;;5024696;28;20384;-63
2022/04/13 10:32:09;;;;;;;2.03;1.70;;;17.30;97.60;;;;;;5033245;28;20505;-66
2022/04/13 10:34:41;;;;;;;4.97;3.13;;;17.40;97.70;;;;;;5031688;28;20055;-66
2022/04/13 10:37:09;;;;;;;8.90;2.45;;;17.40;97.50;;;;;;5031909;28;20029;-66
2022/04/13 10:39:35;;;;;;;3.28;2.25;;;17.50;97.60;;;;;;5031168;28;20022;-66
2022/04/13 10:42:08;;;;;;;4.65;2.85;;;17.50;97.40;;;;;;5032029;28;20392;-68
2022/04/13 10:44:38;;;;;;;5.25;2.80;;;17.60;97.20;;;;;;5033357;28;20029;-67
2022/04/13 10:47:08;;;;;;;9.43;3.28;;;17.60;97.10;;;;;;5032753;28;20163;-71
2022/04/13 10:49:40;;;;;;;2.90;1.70;;;17.60;96.90;;;;;;5029986;28;20485;-67
2022/04/13 10:52:13;;;;;;;7.63;2.85;;;17.60;96.90;;;;;;5021475;28;20049;-65
2022/04/13 10:54:53;;;;;;;10.32;2.80;;;17.60;96.80;;;;;;5024162;28;20026;-65
2022/04/13 10:57:25;;;;;;;3.40;2.42;;;17.60;96.80;;;;;;5027262;28;20100;-65
2022/04/13 10:59:53;;;;;;;9.73;1.52;;;17.60;97.00;;;;;;5014470;28;20034;-65
2022/04/13 11:02:42;;;;;;;5.10;2.85;;;17.70;97.00;;;;;;5014686;28;20041;-65
2022/04/13 11:05:09;;;;;;;7.53;3.10;;;17.70;96.90;;;;;;5014038;28;20025;-65
2022/04/13 11:07:37;;;;;;;7.60;3.42;;;17.80;96.60;;;;;;5013449;28;20046;-65
2022/04/13 11:10:07;;;;;;;5.72;2.42;;;17.80;96.50;;;;;;5031299;28;20055;-65
2022/04/13 11:12:37;;;;;;;6.78;2.10;;;17.90;96.30;;;;;;5033950;28;20041;-65
2022/04/13 11:15:03;;;;;;;6.68;2.28;;;17.90;96.50;;;;;;5032099;28;20576;-65
2022/04/13 11:17:29;;;;;;;6.55;2.40;;;17.90;96.40;;;;;;5022392;28;20048;-66
2022/04/13 11:20:18;;;;;;;6.55;3.50;;;17.90;96.60;;;;;;5014173;28;20034;-66
2022/04/13 11:23:07;;;;;;;10.73;3.40;;;18.00;96.30;;;;;;5024843;28;20046;-66
2022/04/13 11:25:54;;;;;;;5.03;3.00;;;18.10;96.50;;;;;;5021841;28;20033;-65
2022/04/13 11:28:28;;;;;;;5.50;2.58;;;18.10;96.60;;;;;;5021082;28;20025;-65
2022/04/13 11:31:11;;;;;;;5.75;2.92;;;18.20;96.60;;;;;;5025734;28;20049;-65
2022/04/13 11:33:56;;;;;;;2.72;1.50;;;18.30;96.40;;;;;;5026687;28;20401;-65
2022/04/13 11:36:27;;;;;;;3.50;2.40;;;18.40;96.30;;;;;;5013296;28;20040;-65
2022/04/13 11:38:53;;;;;;;5.70;2.70;;;18.30;96.10;;;;;;5013159;28;20030;-66
2022/04/13 11:41:20;;;;;;;8.35;3.67;;;18.40;96.10;;;;;;5013589;28;20038;-65
2022/04/13 11:43:46;;;;;;;4.55;2.10;;;18.40;95.90;;;;;;5012870;28;20084;-66
2022/04/13 11:46:38;;;;;;;4.93;2.53;;;18.40;96.20;;;;;;5026456;28;20045;-65
2022/04/13 11:49:10;;;;;;;6.10;2.90;;;18.40;95.90;;;;;;5024392;28;20029;-66
2022/04/13 11:51:37;;;;;;;5.90;2.17;;;18.50;95.90;;;;;;5020185;28;20480;-65
2022/04/13 11:54:11;;;;;;;4.50;3.17;;;18.40;95.80;;;;;;5032890;28;20385;-65
2022/04/13 11:56:52;;;;;;;4.05;2.65;;;18.50;95.80;;;;;;5016844;28;20087;-65
2022/04/13 11:59:47;;;;;;;4.35;2.83;;;18.50;95.80;;;;;;5031330;28;20100;-65
2022/04/13 12:02:15;;;;;;;9.57;3.05;;;18.40;95.70;;;;;;5029028;28;20048;-65
2022/04/13 12:04:43;;;;;;;3.97;2.55;;;18.40;95.30;;;;;;5030290;28;20057;-65
2022/04/13 12:07:10;;;;;;;4.30;2.67;;;18.40;95.50;;;;;;5029538;28;20025;-65
2022/04/13 12:09:36;;;;;;;6.38;2.20;;;18.40;95.60;;;;;;5028415;28;20439;-65
2022/04/13 12:12:03;;;;;;;4.07;2.03;;;18.40;95.30;;;;;;5028516;28;20030;-65
2022/04/13 12:14:35;;;;;;;6.00;2.85;;;18.40;95.30;;;;;;5029088;28;20039;-66
2022/04/13 12:17:02;;;;;;;10.57;2.92;;;18.50;95.50;;;;;;5028680;28;20388;-66
2022/04/13 12:19:42;;;;;;;5.00;1.85;;;18.50;95.20;;;;;;5029723;28;20521;-66
2022/04/13 12:22:20;;;;;;;2.33;1.58;;;18.50;95.20;;;;;;5029516;28;20829;-65
2022/04/13 12:25:17;;;;;;;3.55;1.73;;;18.50;95.00;;;;;;5027419;28;20065;-65
2022/04/13 12:28:02;;;;;;;3.97;1.45;;;18.50;94.90;;;;;;5024451;28;20053;-65
2022/04/13 12:30:28;;;;;;;5.53;2.17;;;18.50;94.70;;;;;;5028722;28;20033;-65
2022/04/13 12:32:54;;;;;;;3.65;2.17;;;18.50;95.00;;;;;;5028502;28;20191;-66
2022/04/13 12:35:19;;;;;;;3.90;1.48;;;18.50;94.90;;;;;;5028712;28;20477;-65
2022/04/13 12:37:53;;;;;;;3.10;1.45;;;18.60;95.10;;;;;;5028935;28;20047;-65
2022/04/13 12:40:24;;;;;;;2.85;1.70;;;18.60;95.20;;;;;;5028201;28;20032;-65
2022/04/13 12:42:51;;;;;;;4.25;1.20;;;18.60;95.00;;;;;;5028690;28;20088;-65